Latest Weather Observations for Morawa Airport

IDW60801

Issued at 9:05 pm WST Saturday 25 October 2014 (issued every 30 minutes, with the page automatically refreshed every 10 minutes)

About weather observations | Map of weather stations | Latest weather observations for WA | Other Formats
Station Details ID: 008296 Name: MORAWA AIRPORT Lat: -29.20 Lon: 116.02 Height: 271.4 m
Data from the previous 72 hours. | See also: Recent months at Morawa Airport
Date/Time
WST
Temp
°C
App
Temp
°C
Dew
Point
Rel
Hum
%
Delta-T
°C
Wind Press
QNH
hPa
Press
MSL
hPa
Rain
since 9 am
mm
Dir
 
Spd
km/h
Gust
km/h
Spd
kts
Gust
kts
25/09:00pm 17.5 14.6 10.9 65 3.6 SW 17 26 9 14 1021.4 1020.6 0.0
25/08:30pm 18.0 15.3 10.4 61 4.1 SW 15 20 8 11 1020.9 1020.1 0.0
25/08:00pm 18.6 15.8 9.9 57 4.7 SW 15 24 8 13 1020.6 1019.8 0.0
25/07:30pm 19.3 16.7 9.5 53 5.3 WSW 13 20 7 11 1020.4 1019.6 0.0
25/07:00pm 19.9 16.1 8.9 49 5.8 WSW 19 26 10 14 1020.0 1019.2 0.0
25/06:30pm 20.8 16.7 7.8 43 6.8 WSW 19 28 10 15 1019.6 1018.8 0.0
25/06:00pm 21.9 17.4 7.0 38 7.7 WSW 20 28 11 15 1019.2 1018.4 0.0
25/05:30pm 22.8 17.5 6.6 35 8.4 SW 24 35 13 19 1018.9 1018.1 0.0
25/05:00pm 23.4 18.6 7.5 36 8.4 WSW 22 32 12 17 1018.5 1017.7 0.0
25/04:30pm 24.7 19.8 6.9 32 9.4 WSW 22 33 12 18 1018.3 1017.5 0.0
25/04:00pm 24.5 18.7 4.3 27 10.1 W 24 35 13 19 1018.4 1017.6 0.0
25/03:30pm 25.0 19.7 6.7 31 9.6 WSW 24 35 13 19 1018.3 1017.5 0.0
25/03:00pm 24.6 19.4 7.3 33 9.2 SW 24 39 13 21 1018.3 1017.5 0.0
25/02:30pm 25.3 21.0 7.9 33 9.4 WSW 20 33 11 18 1018.1 1017.3 0.0
25/02:00pm 25.5 20.9 8.1 33 9.4 WSW 22 37 12 20 1018.2 1017.4 0.0
25/01:30pm 24.7 20.1 8.2 35 8.9 SW 22 32 12 17 1018.4 1017.6 0.0
25/01:00pm 24.4 20.4 9.2 38 8.3 SW 20 28 11 15 1018.8 1018.0 0.0
25/12:30pm 24.0 20.1 9.6 40 7.9 WSW 20 35 11 19 1018.8 1018.0 0.0
25/12:00pm 24.7 21.0 10.2 40 8.1 W 20 28 11 15 1018.7 1017.9 0.0
25/11:30am 23.0 19.2 9.0 41 7.6 SW 19 28 10 15 1019.1 1018.3 0.0
25/11:00am 22.4 18.5 9.6 44 7.0 SW 20 33 11 18 1019.3 1018.5 0.0
25/10:30am 21.9 18.3 9.8 46 6.6 WSW 19 28 10 15 1019.5 1018.7 0.0
25/10:00am 21.2 17.4 9.8 48 6.2 WSW 20 32 11 17 1019.7 1018.9 0.0
25/09:30am 21.5 17.8 10.3 49 6.2 SW 20 30 11 16 1019.6 1018.8 0.0
25/09:00am 20.5 17.9 10.6 53 5.4 SW 15 24 8 13 1019.4 1018.6 0.0
25/08:30am 19.1 15.7 11.4 61 4.3 SSW 20 28 11 15 1019.2 1018.4 0.0
25/08:00am 17.9 15.1 12.6 71 3.0 SSW 19 24 10 13 1019.2 1018.4 0.0
25/07:30am 17.8 16.4 13.5 76 2.5 SSW 13 20 7 11 1018.9 1018.1 0.0
25/07:00am 15.9 15.1 13.9 88 1.1 SSW 11 17 6 9 1018.8 1018.0 0.0
25/06:30am 15.4 14.9 13.9 91 0.9 SW 9 13 5 7 1018.5 1017.7 0.0
25/06:00am 14.7 14.7 14.1 96 0.3 SW 7 11 4 6 1018.1 1017.3 0.0
25/05:30am 14.5 14.4 13.9 96 0.3 SW 7 9 4 5 1017.8 1016.9 0.0
25/05:00am 14.9 14.4 13.8 93 0.6 SSW 9 13 5 7 1017.6 1016.7 0.0
25/04:30am 15.4 14.5 13.6 89 1.0 SSW 11 17 6 9 1017.5 1016.6 0.0
25/04:00am 15.4 14.5 13.8 90 0.9 SW 11 15 6 8 1017.4 1016.5 0.0
25/03:30am 15.4 14.1 13.8 90 0.9 SSW 13 17 7 9 1017.1 1016.3 0.0
25/03:00am 15.2 13.8 13.4 89 1.0 SSW 13 17 7 9 1016.8 1016.0 0.0
25/02:30am 15.3 14.3 13.3 88 1.1 SSW 11 15 6 8 1016.4 1015.6 0.0
25/02:00am 15.1 14.0 13.1 88 1.1 SSW 11 17 6 9 1016.2 1015.4 0.0
25/01:30am 15.3 14.5 13.0 86 1.3 SSW 9 13 5 7 1016.1 1015.3 0.0
25/01:00am 15.6 14.8 12.9 84 1.5 SSW 9 13 5 7 1016.2 1015.4 0.0
25/12:30am 16.0 14.7 12.6 80 1.9 SSW 11 17 6 9 1016.3 1015.5 0.0
25/12:00am 16.3 14.9 12.1 76 2.3 SSW 11 15 6 8 1016.2 1015.4 0.0
 
Date/Time
WST
Temp
°C
App
Temp
°C
Dew
Point
Rel
Hum
%
Delta-T
°C
Wind Press
QNH
hPa
Press
MSL
hPa
Rain
since 9 am
mm
Dir
 
Spd
km/h
Gust
km/h
Spd
kts
Gust
kts
24/11:30pm 16.7 15.2 12.0 74 2.6 SSW 11 15 6 8 1016.3 1015.5 0.0
24/11:00pm 17.2 14.9 11.9 71 2.9 SSW 15 22 8 12 1016.4 1015.6 0.0
24/10:30pm 17.8 15.7 12.3 70 3.1 SW 15 24 8 13 1016.7 1015.9 0.0
24/10:00pm 18.3 15.3 11.8 66 3.6 SSW 19 26 10 14 1016.5 1015.7 0.0
24/09:30pm 18.9 15.8 11.7 63 4.0 SSW 19 28 10 15 1016.2 1015.4 0.0
24/09:00pm 19.8 16.9 11.0 57 4.9 SW 17 24 9 13 1016.1 1015.3 0.0
24/08:30pm 20.4 17.4 10.5 53 5.4 SW 17 28 9 15 1015.7 1014.9 0.0
24/08:00pm 21.4 18.0 10.6 50 6.0 SW 19 30 10 16 1015.1 1014.3 0.0
24/07:30pm 22.5 18.9 10.0 45 6.9 SW 19 28 10 15 1014.9 1014.1 0.0
24/07:00pm 23.7 20.2 8.9 39 8.0 SW 17 26 9 14 1014.5 1013.6 0.0
24/06:30pm 25.1 20.7 9.0 36 8.8 SW 22 35 12 19 1014.1 1013.2 0.0
24/06:00pm 26.7 22.4 9.5 34 9.6 SW 22 32 12 17 1013.6 1012.7 0.0
24/05:30pm 27.6 22.3 9.9 33 10.0 SW 28 39 15 21 1013.1 1012.3 0.0
24/05:00pm 28.7 23.4 9.9 31 10.7 WSW 28 41 15 22 1012.8 1012.0 0.0
24/04:50pm 29.0 23.3 9.7 30 10.9 WSW 30 43 16 23 1012.7 1011.9 0.0
24/04:30pm 31.5 27.6 3.5 17 14.5 WNW 13 24 7 13 1012.4 1011.6 0.0
24/04:00pm 32.1 27.6 4.0 17 14.7 NW 17 28 9 15 1012.3 1011.5 0.0
24/03:30pm 31.9 27.3 3.8 17 14.7 W 17 32 9 17 1012.4 1011.6 0.0
24/03:00pm 32.8 29.3 3.7 16 15.2 W 11 22 6 12 1012.7 1011.9 0.0
24/02:30pm 31.5 27.6 3.5 17 14.5 WNW 13 28 7 15 1013.0 1012.2 0.0
24/02:00pm 30.8 28.3 4.5 19 13.8 SSW 7 17 4 9 1013.3 1012.5 0.0
24/01:30pm 30.9 28.1 5.3 20 13.6 WNW 9 19 5 10 1013.8 1012.9 0.0
24/01:00pm 30.9 28.7 6.0 21 13.4 WNW 7 17 4 9 1014.2 1013.3 0.0
24/12:30pm 29.7 26.8 6.4 23 12.5 W 11 20 6 11 1014.6 1013.7 0.0
24/12:00pm 29.1 26.3 7.1 25 11.9 NW 11 22 6 12 1014.9 1014.1 0.0
24/11:30am 28.0 26.3 8.3 29 10.8 N 7 15 4 8 1015.4 1014.6 0.0
24/11:00am 27.4 26.0 9.7 33 9.9 N 7 17 4 9 1016.0 1015.2 0.0
24/10:30am 25.2 23.4 9.5 37 8.7 NE 9 19 5 10 1016.6 1015.8 0.0
24/10:00am 24.3 21.9 10.2 41 7.9 ENE 13 20 7 11 1016.9 1016.1 0.0
24/09:30am 23.7 21.3 10.0 42 7.6 E 13 24 7 13 1016.9 1016.1 0.0
24/09:00am 22.3 20.1 10.8 48 6.4 E 13 19 7 10 1017.2 1016.4 0.0
24/08:30am 20.3 19.5 11.8 58 4.8 ESE 7 13 4 7 1017.4 1016.5 0.0
24/08:00am 18.5 17.4 12.0 66 3.6 E 9 13 5 7 1017.2 1016.4 0.0
24/07:30am 16.7 16.1 12.3 75 2.5 ESE 7 11 4 6 1017.2 1016.4 0.0
24/07:00am 15.2 14.6 12.3 83 1.6 ESE 7 11 4 6 1017.2 1016.4 0.0
24/06:30am 14.0 14.4 12.4 90 0.9 S 2 4 1 2 1017.6 1016.7 0.0
24/06:00am 13.2 14.0 12.4 95 0.4 CALM 0 0 0 0 1017.2 1016.4 0.0
24/05:30am 12.4 12.5 11.6 95 0.4 S 2 4 1 2 1017.2 1016.4 0.0
24/05:00am 12.7 12.6 12.1 96 0.3 S 4 6 2 3 1017.1 1016.3 0.0
24/04:30am 13.0 12.5 11.9 93 0.6 SSW 6 7 3 4 1017.1 1016.3 0.0
24/04:00am 13.2 12.5 11.9 92 0.7 S 7 9 4 5 1017.0 1016.2 0.0
24/03:30am 13.2 12.4 11.8 91 0.8 S 7 7 4 4 1017.0 1016.2 0.0
24/03:00am 13.3 12.8 11.9 91 0.8 S 6 7 3 4 1016.9 1016.1 0.0
24/02:30am 13.7 12.6 11.8 88 1.0 S 9 11 5 6 1017.1 1016.3 0.0
24/02:00am 14.1 13.0 12.0 87 1.1 S 9 11 5 6 1017.2 1016.4 0.0
24/01:30am 14.3 13.5 11.6 84 1.5 S 7 11 4 6 1017.5 1016.6 0.0
24/01:00am 14.5 13.2 11.3 81 1.7 S 9 11 5 6 1017.2 1016.4 0.0
24/12:30am 15.0 13.7 11.2 78 2.1 S 9 13 5 7 1017.7 1016.8 0.0
24/12:00am 15.3 13.5 10.9 75 2.4 S 11 15 6 8 1017.5 1016.6 0.0
 
Date/Time
WST
Temp
°C
App
Temp
°C
Dew
Point
Rel
Hum
%
Delta-T
°C
Wind Press
QNH
hPa
Press
MSL
hPa
Rain
since 9 am
mm
Dir
 
Spd
km/h
Gust
km/h
Spd
kts
Gust
kts
23/11:30pm 15.7 14.2 10.7 72 2.7 S 9 13 5 7 1017.8 1016.9 0.0
23/11:00pm 16.2 13.9 10.3 68 3.2 S 13 19 7 10 1017.9 1017.0 0.0
23/10:30pm 16.6 14.2 10.2 66 3.4 S 13 17 7 9 1017.8 1016.9 0.0
23/10:00pm 17.0 15.1 10.4 65 3.5 SSW 11 19 6 10 1017.9 1017.0 0.0
23/09:30pm 17.6 14.9 10.5 63 3.8 SSW 15 22 8 12 1018.0 1017.2 0.0
23/09:00pm 18.3 14.7 10.7 61 4.1 SSW 20 28 11 15 1017.9 1017.0 0.0
23/08:30pm 18.8 16.3 10.9 60 4.3 SW 15 22 8 12 1017.9 1017.0 0.0
23/08:00pm 19.5 16.8 10.2 55 5.1 SW 15 20 8 11 1017.6 1016.7 0.0
23/07:30pm 20.2 17.3 9.7 51 5.7 SW 15 20 8 11 1017.4 1016.5 0.0
23/07:00pm 21.2 18.2 9.4 47 6.4 SW 15 22 8 12 1016.9 1016.1 0.0
23/06:30pm 22.0 18.3 9.5 45 6.8 SW 19 28 10 15 1016.6 1015.8 0.0
23/06:00pm 23.0 19.3 9.4 42 7.4 SW 19 30 10 16 1016.2 1015.4 0.0
23/05:30pm 24.4 21.4 9.2 38 8.3 SW 15 20 8 11 1015.8 1015.0 0.0
23/05:00pm 25.1 21.1 9.0 36 8.8 SSW 20 28 11 15 1015.6 1014.8 0.0
23/04:30pm 25.9 22.5 9.3 35 9.2 WSW 17 28 9 15 1015.6 1014.8 0.0
23/04:00pm 26.1 22.4 9.5 35 9.2 WSW 19 28 10 15 1015.6 1014.8 0.0
23/03:30pm 26.6 23.3 9.5 34 9.5 WSW 17 30 9 16 1015.4 1014.6 0.0
23/03:00pm 26.6 23.7 9.5 34 9.5 SW 15 28 8 15 1015.6 1014.8 0.0
23/02:30pm 26.0 22.5 8.9 34 9.4 W 17 28 9 15 1015.6 1014.8 0.0
23/02:00pm 26.4 23.3 8.8 33 9.7 WSW 15 28 8 15 1015.8 1015.0 0.0
23/01:30pm 26.3 23.1 8.3 32 9.8 W 15 26 8 14 1016.0 1015.2 0.0
23/01:00pm 24.7 22.1 7.8 34 9.1 SW 11 26 6 14 1016.5 1015.7 0.0
23/12:30pm 23.7 21.9 9.3 40 7.9 SW 9 13 5 7 1016.8 1016.0 0.0
23/12:00pm 23.3 20.9 10.0 43 7.3 W 13 20 7 11 1017.1 1016.3 0.0
23/11:30am 23.0 21.0 11.4 48 6.6 WSW 13 20 7 11 1017.5 1016.6 0.0
23/11:00am 22.2 20.9 11.3 50 6.1 SW 9 17 5 9 1017.7 1016.8 0.0
23/10:30am 20.6 18.6 12.6 60 4.6 WSW 15 20 8 11 1018.0 1017.2 0.0
23/10:00am 20.6 18.6 12.8 61 4.5 W 15 22 8 12 1018.3 1017.5 0.0
23/09:30am 18.6 16.7 14.3 76 2.5 W 17 28 9 15 1018.5 1017.7 0.0
23/09:00am 18.1 15.6 13.6 75 2.6 W 19 26 10 14 1018.3 1017.5 0.4
23/08:30am 19.5 17.6 11.8 61 4.3 W 13 20 7 11 1018.0 1017.2 0.4
23/08:00am 18.4 17.7 13.3 72 2.9 WNW 9 15 5 8 1017.7 1016.8 0.4
23/07:30am 17.8 17.4 14.1 79 2.1 W 9 15 5 8 1017.6 1016.7 0.4
23/07:00am 16.6 16.8 14.6 88 1.2 WNW 7 9 4 5 1017.1 1016.3 0.4
23/06:30am 14.7 15.1 14.7 100 0.0 NW 6 9 3 5 1016.8 1016.0 0.4
23/06:00am 13.2 13.1 13.2 100 0.0 NNW 6 7 3 4 1016.7 1015.9 0.4
23/05:30am 13.1 12.9 13.1 100 0.0 N 6 7 3 4 1016.5 1015.7 0.4
23/05:00am 14.2 14.2 14.2 100 0.0 WNW 7 9 4 5 1016.3 1015.5 0.4
23/04:30am 14.4 14.1 14.4 100 0.0 WNW 9 11 5 6 1016.4 1015.6 0.2
23/04:00am 14.3 14.3 14.3 100 0.0 WNW 7 11 4 6 1016.6 1015.8 0.2
23/03:30am 14.3 14.3 14.3 100 0.0 WNW 7 9 4 5 1016.5 1015.7 0.2
23/03:00am 14.4 14.5 14.4 100 0.0 WNW 7 11 4 6 1016.5 1015.7 0.2
23/02:30am 14.7 14.5 14.7 100 0.0 WNW 9 11 5 6 1016.5 1015.7 0.2
23/02:00am 14.9 15.2 14.9 100 0.0 WNW 7 9 4 5 1016.6 1015.8 0.2
23/01:30am 15.1 15.1 15.1 100 0.0 WNW 9 11 5 6 1016.7 1015.9 0.2
23/01:00am 15.5 15.1 15.2 98 0.2 WNW 11 15 6 8 1016.7 1015.9 0.2
23/12:30am 16.0 15.3 14.4 90 0.9 WNW 11 15 6 8 1017.0 1016.2 0.2
23/12:00am 16.3 15.6 15.3 94 0.6 W 13 20 7 11 1017.0 1016.2 0.2
 
Date/Time
WST
Temp
°C
App
Temp
°C
Dew
Point
Rel
Hum
%
Delta-T
°C
Wind Press
QNH
hPa
Press
MSL
hPa
Rain
since 9 am
mm
Dir
 
Spd
km/h
Gust
km/h
Spd
kts
Gust
kts
22/11:30pm 16.7 14.5 14.9 89 1.1 W 20 30 11 16 1017.2 1016.4 0.2
22/11:00pm 17.9 16.5 13.4 75 2.6 W 13 19 7 10 1017.0 1016.2 0.0
22/10:30pm 18.1 16.5 14.0 77 2.4 W 15 22 8 12 1017.1 1016.3 0.0
22/10:00pm 18.0 16.8 12.7 71 3.0 W 11 17 6 9 1017.2 1016.4 0.0
22/09:30pm 18.0 15.9 12.5 70 3.1 W 15 19 8 10 1017.1 1016.3 0.0

Other Formats:

Comma delimited format used in spreadsheet applications
http://www.bom.gov.au/fwo/IDW60801/IDW60801.94417.axf

JavaScript Object Notation format (JSON) in row-major order
http://www.bom.gov.au/fwo/IDW60801/IDW60801.94417.json